Terminal Aerodrome Forecast
Issued by NWS Omaha/Valley, NE

Home | Current Version | Previous Version | Text Only | Print | Product List | Glossary Off
Versions: 1 2 3 4 5 6 7 8 9 10 11 12 13 14 15 16 17 18 19 20 21 22 23 24 25 26 27 28 29 30 31 32 33 34 35 36 37 38 39 40 41 42 43 44 45 46 47

000
FTUS43 KOAX 300520
TAFOFK
TAF
KOFK 300520Z 3006/0106 VRB03KT 6SM HZ SCT080 BKN150
     FM301100 05004KT 6SM HZ BKN100 OVC250
     FM301800 10008KT 6SM HZ OVC100=

USA.gov is the U.S. government's official web portal to all federal, state and local government web resources and services.